Time;durP1;ratioP1;P1;durP2;ratioP2;P2;SDS_P1;SDS_P2;PMS_P1;PMS_P2;Temp;Humidity;BMP_temperature;BMP_pressure;BME280_temperature;BME280_humidity;BME280_pressure;Samples;Min_cycle;Max_cycle;Signal;HPM_P1;HPM_P2
2021/05/23 00:02:10;;;;;;;3.95;1.30;;;;;;;11.02;77.59;100084.38;5035247;28;20522;-68
2021/05/23 00:04:37;;;;;;;4.38;1.40;;;;;;;10.84;78.30;100086.50;4987591;28;20059;-67
2021/05/23 00:07:06;;;;;;;4.15;1.20;;;;;;;10.79;78.82;100083.34;5001585;28;20141;-69
2021/05/23 00:09:34;;;;;;;2.60;1.35;;;;;;;10.78;78.72;100076.38;5005980;28;20078;-68
2021/05/23 00:12:02;;;;;;;2.97;1.70;;;;;;;10.70;79.55;100086.59;5037579;28;20058;-67
2021/05/23 00:14:29;;;;;;;3.80;2.03;;;;;;;10.72;79.01;100082.94;4999162;28;20130;-68
2021/05/23 00:16:56;;;;;;;2.90;1.20;;;;;;;10.64;79.12;100085.22;5005496;28;20050;-67
2021/05/23 00:19:24;;;;;;;4.18;1.50;;;;;;;10.56;79.94;100085.75;5041084;28;20383;-68
2021/05/23 00:21:51;;;;;;;3.05;1.67;;;;;;;10.59;80.38;100085.53;5044824;28;20141;-68
2021/05/23 00:24:18;;;;;;;3.03;1.77;;;;;;;10.56;80.15;100098.06;5038515;28;20052;-69
2021/05/23 00:26:45;;;;;;;3.65;1.30;;;;;;;10.53;80.24;100100.88;5017798;28;20047;-68
2021/05/23 00:29:13;;;;;;;3.97;1.60;;;;;;;10.54;80.59;100098.16;5007059;28;20531;-68
2021/05/23 00:31:40;;;;;;;4.60;1.52;;;;;;;10.51;80.70;100095.75;5015057;28;20055;-68
2021/05/23 00:34:07;;;;;;;3.58;1.77;;;;;;;10.51;80.37;100097.53;5065278;28;20056;-68
2021/05/23 00:36:34;;;;;;;3.03;1.60;;;;;;;10.42;81.36;100098.97;5003450;28;20154;-68
2021/05/23 00:39:03;;;;;;;4.35;1.95;;;;;;;10.35;81.57;100108.22;5007134;28;20086;-68
2021/05/23 00:41:30;;;;;;;5.55;1.92;;;;;;;10.39;81.54;100104.44;5023675;28;20085;-68
2021/05/23 00:43:57;;;;;;;3.40;2.00;;;;;;;10.33;81.50;100099.59;5012210;28;20115;-70
2021/05/23 00:46:24;;;;;;;6.65;2.20;;;;;;;10.31;81.78;100102.34;5026922;28;20401;-69
2021/05/23 00:48:51;;;;;;;4.95;1.73;;;;;;;10.26;81.38;100101.78;5049464;28;20396;-68
2021/05/23 00:51:18;;;;;;;21.60;2.90;;;;;;;10.20;81.43;100101.31;5016376;28;20152;-69
2021/05/23 00:53:46;;;;;;;3.70;2.03;;;;;;;10.21;82.24;100103.00;4993960;28;20052;-69
2021/05/23 00:56:17;;;;;;;5.93;2.38;;;;;;;10.15;82.45;100099.81;5009315;28;20072;-68
2021/05/23 00:58:45;;;;;;;7.28;2.55;;;;;;;10.13;82.00;100096.47;4998718;28;20058;-68
2021/05/23 01:01:32;;;;;;;3.38;2.13;;;;;;;10.17;82.37;100097.09;4987343;28;20157;-68
2021/05/23 01:03:59;;;;;;;4.90;2.20;;;;;;;10.10;82.38;100099.28;4994698;28;20518;-68
2021/05/23 01:06:28;;;;;;;3.75;2.58;;;;;;;10.02;82.37;100106.81;5002038;28;20459;-68
2021/05/23 01:08:55;;;;;;;2.85;2.05;;;;;;;10.11;82.08;100110.66;4987876;28;20052;-70
2021/05/23 01:11:22;;;;;;;2.10;1.90;;;;;;;10.19;81.89;100118.88;4989895;28;20180;-67
2021/05/23 01:13:59;;;;;;;10.45;2.60;;;;;;;10.14;82.52;100118.34;5051119;28;20134;-69
2021/05/23 01:16:33;;;;;;;4.97;2.15;;;;;;;10.18;82.10;100125.09;5044409;28;20074;-68
2021/05/23 01:19:16;;;;;;;7.85;2.55;;;;;;;10.02;83.00;100124.41;5048295;28;20457;-69
2021/05/23 01:21:54;;;;;;;7.32;3.20;;;;;;;10.08;83.08;100124.81;4993517;28;20491;-69
2021/05/23 01:24:34;;;;;;;5.55;2.20;;;;;;;10.13;82.28;100128.03;5033616;28;20429;-69
2021/05/23 01:27:01;;;;;;;3.22;2.17;;;;;;;10.17;82.50;100130.44;5059406;28;20085;-67
2021/05/23 01:29:29;;;;;;;3.03;1.95;;;;;;;10.04;82.64;100131.25;5026984;28;20110;-70
2021/05/23 01:31:56;;;;;;;5.25;2.42;;;;;;;10.00;82.77;100132.41;5018510;28;20529;-69
2021/05/23 01:34:24;;;;;;;3.42;2.10;;;;;;;10.07;82.63;100132.81;5029700;28;20513;-68
2021/05/23 01:36:53;;;;;;;3.50;2.33;;;;;;;10.02;83.01;100130.50;4995394;28;20244;-68
2021/05/23 01:39:21;;;;;;;4.18;2.67;;;;;;;9.81;84.17;100139.75;4998846;28;20046;-68
2021/05/23 01:41:49;;;;;;;7.55;2.60;;;;;;;9.71;84.21;100138.66;5040577;28;20058;-67
2021/05/23 01:44:16;;;;;;;4.32;2.25;;;;;;;9.76;84.41;100136.56;5032666;28;20100;-68
2021/05/23 01:46:43;;;;;;;4.10;2.35;;;;;;;9.62;84.44;100148.78;5024401;28;20078;-69
2021/05/23 01:49:11;;;;;;;4.40;2.75;;;;;;;9.72;84.16;100145.59;5058773;28;20054;-69
2021/05/23 01:51:38;;;;;;;4.63;2.70;;;;;;;9.72;84.86;100140.31;5001548;28;20175;-69
2021/05/23 01:54:05;;;;;;;4.80;2.70;;;;;;;9.64;84.75;100136.41;5022783;28;20054;-69
2021/05/23 01:56:32;;;;;;;8.20;3.00;;;;;;;9.61;85.48;100133.13;4993549;28;20058;-69
2021/05/23 01:58:59;;;;;;;4.25;2.50;;;;;;;9.56;84.97;100141.31;5017696;28;20420;-67
2021/05/23 02:01:27;;;;;;;4.25;2.38;;;;;;;9.44;85.76;100147.31;5012277;28;20058;-69
2021/05/23 02:03:59;;;;;;;3.60;2.40;;;;;;;9.55;85.43;100160.66;5032970;28;20520;-68
2021/05/23 02:06:27;;;;;;;6.85;3.03;;;;;;;9.44;85.95;100152.56;5026267;28;20059;-68
2021/05/23 02:08:55;;;;;;;5.40;2.67;;;;;;;9.24;86.91;100153.81;4984878;28;20104;-68
2021/05/23 02:11:22;;;;;;;3.10;2.40;;;;;;;9.20;86.77;100149.66;5018541;28;20125;-69
2021/05/23 02:13:51;;;;;;;3.35;2.42;;;;;;;9.35;87.22;100148.72;5045413;28;20065;-68
2021/05/23 02:16:19;;;;;;;3.47;2.80;;;;;;;9.27;86.57;100144.88;5008202;28;20072;-67
2021/05/23 02:18:46;;;;;;;3.35;2.63;;;;;;;9.33;86.75;100155.88;5050665;28;20137;-68
2021/05/23 02:21:14;;;;;;;5.13;2.67;;;;;;;9.14;87.15;100157.94;5014440;28;20076;-68
2021/05/23 02:23:55;;;;;;;4.32;3.08;;;;;;;9.32;85.77;100154.19;4991380;28;20419;-71
2021/05/23 02:26:22;;;;;;;3.05;2.55;;;;;;;9.08;87.59;100143.38;5029037;28;20053;-69
2021/05/23 02:28:50;;;;;;;4.05;2.58;;;;;;;9.05;87.89;100147.94;4981879;28;20069;-68
2021/05/23 02:31:17;;;;;;;3.67;2.70;;;;;;;9.04;88.87;100154.16;4986263;28;20076;-69
2021/05/23 02:33:44;;;;;;;4.35;2.85;;;;;;;8.92;88.41;100150.50;5004268;28;20078;-69
2021/05/23 02:36:12;;;;;;;4.75;2.55;;;;;;;8.97;89.12;100144.97;4999442;28;20062;-68
2021/05/23 02:38:39;;;;;;;6.40;2.80;;;;;;;8.77;89.45;100152.22;5030546;28;20082;-68
2021/05/23 02:41:06;;;;;;;5.38;2.55;;;;;;;8.80;89.56;100152.06;5016304;28;20050;-67
2021/05/23 02:43:33;;;;;;;4.32;2.65;;;;;;;8.92;89.11;100150.50;4991755;28;20069;-69
2021/05/23 02:46:03;;;;;;;5.55;2.97;;;;;;;8.95;88.58;100155.53;5036820;28;20046;-69
2021/05/23 02:48:31;;;;;;;3.05;2.70;;;;;;;9.16;87.83;100165.69;5063194;28;20050;-68
2021/05/23 02:55:23;;;;;;;3.97;2.75;;;;;;;8.76;89.12;100163.66;5008130;28;20115;-69
2021/05/23 02:57:51;;;;;;;2.75;2.30;;;;;;;8.72;90.67;100167.41;5019468;28;20564;-68
2021/05/23 03:04:30;;;;;;;5.30;3.17;;;;;;;8.52;90.80;100165.09;4982343;23;20054;-77
2021/05/23 03:06:58;;;;;;;7.38;2.78;;;;;;;8.49;92.09;100160.88;4999965;28;20128;-78
2021/05/23 03:09:26;;;;;;;4.10;2.70;;;;;;;8.56;92.13;100161.38;5055061;28;20493;-75
2021/05/23 03:11:53;;;;;;;4.28;2.88;;;;;;;8.72;91.08;100169.19;5060067;28;20107;-77
2021/05/23 03:18:27;;;;;;;5.15;3.25;;;;;;;8.51;91.86;100174.75;5021231;28;20142;-76
2021/05/23 03:20:54;;;;;;;4.88;2.95;;;;;;;8.71;91.46;100180.63;4975791;28;20089;-76
2021/05/23 03:23:21;;;;;;;6.28;3.25;;;;;;;8.83;90.78;100178.13;4990345;28;20479;-77
2021/05/23 03:25:49;;;;;;;3.88;2.60;;;;;;;8.93;89.94;100175.81;4992487;28;20054;-76
2021/05/23 03:28:16;;;;;;;3.63;2.63;;;;;;;8.88;90.62;100175.22;5011971;28;20407;-76
2021/05/23 03:30:44;;;;;;;4.88;2.90;;;;;;;8.96;90.56;100180.88;4995993;28;20134;-77
2021/05/23 03:33:11;;;;;;;4.35;2.40;;;;;;;9.21;89.42;100171.53;5024854;28;20073;-77
2021/05/23 03:35:39;;;;;;;3.67;2.60;;;;;;;9.37;88.09;100177.53;5000061;28;20177;-78
2021/05/23 03:38:07;;;;;;;4.35;2.67;;;;;;;9.47;87.46;100167.31;4987966;28;20053;-77
2021/05/23 03:40:36;;;;;;;8.35;2.63;;;;;;;9.54;87.34;100174.69;4975648;28;20126;-76
2021/05/23 03:43:04;;;;;;;4.10;2.10;;;;;;;9.53;86.40;100173.00;5028165;28;20054;-76
2021/05/23 03:45:32;;;;;;;5.85;2.65;;;;;;;9.60;86.57;100179.59;5082674;28;20056;-77
2021/05/23 03:47:59;;;;;;;4.75;2.50;;;;;;;9.73;86.41;100178.84;4993839;28;20070;-77
2021/05/23 03:50:27;;;;;;;5.40;2.20;;;;;;;9.85;85.43;100183.31;5049201;23;20048;-68
2021/05/23 03:52:56;;;;;;;3.70;2.42;;;;;;;9.80;85.32;100169.59;5066639;28;20042;-68
2021/05/23 03:55:24;;;;;;;3.38;2.17;;;;;;;9.81;86.11;100177.38;5056248;28;20040;-69
2021/05/23 03:57:52;;;;;;;4.28;2.28;;;;;;;9.76;86.28;100181.25;5059533;28;20044;-70
2021/05/23 04:00:20;;;;;;;2.58;2.38;;;;;;;9.71;86.07;100189.44;5058313;28;20049;-68
2021/05/23 04:02:52;;;;;;;4.28;2.13;;;;;;;9.94;84.88;100182.72;5051468;23;20057;-68
2021/05/23 04:05:21;;;;;;;5.53;2.20;;;;;;;9.90;85.39;100191.75;4957947;28;20103;-68
2021/05/23 04:07:49;;;;;;;4.57;1.95;;;;;;;10.10;84.84;100193.13;4968632;28;20145;-69
2021/05/23 04:10:19;;;;;;;4.90;2.30;;;;;;;10.21;84.07;100201.16;4963427;28;20615;-69
2021/05/23 04:12:49;;;;;;;3.13;1.95;;;;;;;10.29;83.72;100192.81;4969313;28;20153;-68
2021/05/23 04:15:18;;;;;;;3.63;1.95;;;;;;;10.50;82.92;100198.50;4968630;28;20079;-68
2021/05/23 04:17:45;;;;;;;2.40;1.70;;;;;;;10.71;82.31;100202.31;4971368;28;20518;-68
2021/05/23 04:20:16;;;;;;;3.85;2.00;;;;;;;10.98;80.99;100207.53;4964911;28;20059;-69
2021/05/23 04:22:44;;;;;;;1.98;1.55;;;;;;;11.30;79.32;100212.41;4968116;28;20059;-68
2021/05/23 04:25:13;;;;;;;3.35;1.55;;;;;;;12.06;76.54;100217.63;4939859;28;20065;-68
2021/05/23 04:27:42;;;;;;;6.68;2.22;;;;;;;13.76;70.96;100212.81;5013435;28;20051;-68
2021/05/23 04:30:10;;;;;;;3.78;1.52;;;;;;;15.28;63.10;100219.81;4973228;28;20085;-68
2021/05/23 04:32:37;;;;;;;4.68;1.30;;;;;;;15.97;60.11;100224.47;4993013;28;20299;-70
2021/05/23 04:35:05;;;;;;;4.10;1.58;;;;;;;16.43;58.67;100223.88;4981527;28;20114;-68
2021/05/23 04:37:32;;;;;;;2.70;1.10;;;;;;;16.00;58.27;100226.88;4968161;28;20146;-68
2021/05/23 04:40:00;;;;;;;5.40;2.15;;;;;;;14.55;63.09;100226.78;4965426;28;20091;-68
2021/05/23 04:42:27;;;;;;;2.53;1.45;;;;;;;13.95;65.29;100230.72;4995637;28;20512;-68
2021/05/23 04:45:15;;;;;;;3.97;1.58;;;;;;;13.31;67.61;100227.78;4956625;28;20108;-68
2021/05/23 04:47:44;;;;;;;3.25;2.22;;;;;;;13.12;69.11;100229.16;4964536;28;20058;-67
2021/05/23 04:50:12;;;;;;;2.05;1.30;;;;;;;13.19;69.04;100232.16;4942013;28;20516;-69
2021/05/23 04:52:39;;;;;;;3.72;1.52;;;;;;;12.91;69.98;100238.69;4966235;28;20400;-69
2021/05/23 04:55:07;;;;;;;3.83;1.50;;;;;;;12.72;70.89;100241.88;4971468;28;20051;-69
2021/05/23 04:57:35;;;;;;;3.50;1.58;;;;;;;13.16;69.64;100241.19;4958479;28;20062;-69
2021/05/23 05:04:08;;;;;;;1.70;1.20;;;;;;;14.62;63.37;100254.44;4965191;28;20050;-68
2021/05/23 05:06:35;;;;;;;3.47;1.33;;;;;;;14.31;64.19;100256.03;4967524;28;20057;-69
2021/05/23 05:09:02;;;;;;;3.60;1.13;;;;;;;13.16;68.40;100262.34;4969636;28;20055;-68
2021/05/23 05:11:30;;;;;;;1.42;0.80;;;;;;;13.36;67.50;100268.78;4957393;28;20277;-69
2021/05/23 05:13:57;;;;;;;3.30;1.27;;;;;;;13.16;68.03;100264.16;4946483;28;20047;-68
2021/05/23 05:16:24;;;;;;;3.03;1.40;;;;;;;13.33;67.57;100271.69;4973966;28;20453;-68
2021/05/23 05:18:51;;;;;;;2.17;1.38;;;;;;;13.20;67.47;100270.03;4958006;28;20051;-69
2021/05/23 05:21:18;;;;;;;2.08;1.15;;;;;;;12.86;69.36;100275.19;4970153;28;20416;-68
2021/05/23 05:23:45;;;;;;;2.42;1.10;;;;;;;12.83;69.37;100278.91;4930679;28;20047;-68
2021/05/23 05:26:13;;;;;;;3.10;1.13;;;;;;;12.77;69.50;100283.81;4967059;28;20518;-71
2021/05/23 05:28:40;;;;;;;2.63;1.40;;;;;;;12.66;69.95;100285.44;4960980;28;20702;-70
2021/05/23 05:31:07;;;;;;;2.65;1.30;;;;;;;12.45;70.51;100292.25;4973311;28;20138;-68
2021/05/23 05:33:34;;;;;;;2.25;1.40;;;;;;;12.47;70.07;100294.78;4968831;28;20069;-68
2021/05/23 05:36:02;;;;;;;2.35;1.35;;;;;;;12.15;71.96;100301.41;4947781;28;20058;-68
2021/05/23 05:38:29;;;;;;;2.72;1.20;;;;;;;12.39;71.03;100298.84;4975106;28;20047;-69
2021/05/23 05:40:56;;;;;;;3.28;1.30;;;;;;;12.55;70.25;100305.66;4969162;28;20488;-70
2021/05/23 05:43:24;;;;;;;2.40;1.15;;;;;;;12.66;70.22;100305.72;4968538;28;20501;-68
2021/05/23 05:45:51;;;;;;;1.92;1.33;;;;;;;12.59;70.50;100313.22;4956976;28;20491;-69
2021/05/23 05:48:19;;;;;;;2.70;1.23;;;;;;;12.48;70.68;100315.81;4970291;28;20619;-70
2021/05/23 05:50:47;;;;;;;0.80;0.80;;;;;;;12.41;70.82;100318.03;4954937;28;20071;-68
2021/05/23 05:53:14;;;;;;;3.47;1.30;;;;;;;12.26;71.58;100316.50;4955245;28;20103;-69
2021/05/23 05:55:41;;;;;;;2.97;1.20;;;;;;;12.35;71.37;100315.00;4964004;28;20454;-68
2021/05/23 05:58:08;;;;;;;1.27;0.88;;;;;;;12.20;72.22;100319.56;4972192;28;20146;-69
2021/05/23 06:00:35;;;;;;;2.67;1.10;;;;;;;12.13;72.95;100316.50;4983595;28;20058;-67
2021/05/23 06:03:03;;;;;;;3.08;1.17;;;;;;;11.89;74.09;100319.09;4968986;28;20317;-69
2021/05/23 06:05:30;;;;;;;1.20;0.80;;;;;;;11.84;74.33;100315.03;4961970;28;20447;-69
2021/05/23 06:07:57;;;;;;;2.58;1.05;;;;;;;12.01;73.00;100327.91;4969094;28;20074;-68
2021/05/23 06:10:25;;;;;;;4.18;1.65;;;;;;;11.83;74.31;100322.13;4967083;28;20055;-69
2021/05/23 06:12:52;;;;;;;2.13;1.00;;;;;;;11.89;73.88;100331.44;4969591;28;20400;-71
2021/05/23 06:15:19;;;;;;;5.18;1.15;;;;;;;11.64;74.47;100330.41;4967659;28;20096;-68
2021/05/23 06:17:47;;;;;;;2.70;1.50;;;;;;;11.45;74.88;100327.34;4951508;28;20184;-68
2021/05/23 06:20:14;;;;;;;4.03;1.00;;;;;;;11.46;75.47;100336.09;4967379;28;20035;-69
2021/05/23 06:22:41;;;;;;;3.33;1.13;;;;;;;11.64;75.11;100338.34;4973829;28;20050;-69
2021/05/23 06:25:09;;;;;;;1.75;1.10;;;;;;;11.60;75.10;100341.28;4963660;28;20135;-70
2021/05/23 06:27:36;;;;;;;5.88;1.17;;;;;;;11.46;75.96;100350.13;4954528;28;20206;-69
2021/05/23 06:30:05;;;;;;;1.77;0.90;;;;;;;11.30;76.91;100352.06;4965545;28;20082;-67
2021/05/23 06:32:32;;;;;;;1.60;0.98;;;;;;;11.29;76.79;100351.22;4960783;28;20078;-68
2021/05/23 06:34:59;;;;;;;1.75;1.00;;;;;;;11.32;77.09;100361.59;4966915;28;20135;-68
2021/05/23 06:37:27;;;;;;;5.55;1.73;;;;;;;11.14;78.17;100361.00;4963966;28;20069;-68
2021/05/23 06:39:54;;;;;;;5.85;1.13;;;;;;;11.23;77.54;100358.72;4967011;28;20038;-68
2021/05/23 06:42:22;;;;;;;2.03;1.00;;;;;;;11.20;78.07;100362.38;4946955;28;20050;-68
2021/05/23 06:44:49;;;;;;;3.25;1.33;;;;;;;11.26;78.05;100362.00;4966741;28;20144;-68
2021/05/23 06:47:16;;;;;;;4.00;1.63;;;;;;;11.12;79.25;100367.31;4941492;28;20055;-68
2021/05/23 06:49:43;;;;;;;7.10;1.85;;;;;;;11.10;79.27;100358.66;4964358;28;20503;-68
2021/05/23 06:52:10;;;;;;;3.47;1.48;;;;;;;11.06;81.14;100365.91;4953057;28;20058;-68
2021/05/23 06:54:38;;;;;;;2.83;1.13;;;;;;;10.98;82.80;100356.81;4964891;28;20051;-69
2021/05/23 06:57:05;;;;;;;3.08;1.20;;;;;;;10.73;84.16;100368.09;4936476;28;20070;-67
2021/05/23 06:59:32;;;;;;;5.03;1.27;;;;;;;10.88;84.83;100369.75;4956229;28;20042;-67
2021/05/23 07:01:59;;;;;;;2.35;1.20;;;;;;;10.90;85.00;100360.81;4969284;28;20059;-68
2021/05/23 07:04:26;;;;;;;3.22;1.20;;;;;;;10.94;83.80;100358.81;4969591;28;20054;-69
2021/05/23 07:06:54;;;;;;;2.28;1.27;;;;;;;11.20;84.42;100364.19;4959333;28;20055;-69
2021/05/23 07:09:21;;;;;;;2.30;0.90;;;;;;;11.52;82.65;100367.31;4965388;28;20078;-69
2021/05/23 07:11:48;;;;;;;1.83;1.10;;;;;;;11.92;80.52;100368.13;4957115;28;20131;-69
2021/05/23 07:14:16;;;;;;;1.90;1.25;;;;;;;12.26;77.18;100376.34;4980357;28;20066;-68
2021/05/23 07:16:44;;;;;;;2.28;1.10;;;;;;;12.47;77.16;100381.91;4984406;28;20062;-69
2021/05/23 07:19:11;;;;;;;3.63;1.40;;;;;;;12.48;76.87;100376.53;4952799;28;20149;-68
2021/05/23 07:21:38;;;;;;;1.70;1.05;;;;;;;12.64;77.04;100377.13;4945404;28;20051;-68
2021/05/23 07:24:06;;;;;;;3.60;0.98;;;;;;;13.43;73.21;100369.66;4981694;28;20046;-69
2021/05/23 07:26:33;;;;;;;2.03;0.90;;;;;;;13.96;70.26;100369.16;4962481;28;20067;-67
2021/05/23 07:29:00;;;;;;;1.65;0.80;;;;;;;14.77;67.50;100363.66;4960490;28;20066;-70
2021/05/23 07:31:30;;;;;;;3.50;1.27;;;;;;;15.44;65.30;100359.91;4961691;28;20061;-69
2021/05/23 07:33:58;;;;;;;5.60;1.85;;;;;;;16.88;60.07;100372.25;4947518;28;20879;-68
2021/05/23 07:36:25;;;;;;;4.20;1.45;;;;;;;16.41;60.03;100368.47;4944046;28;20059;-67
2021/05/23 07:38:54;;;;;;;2.60;1.08;;;;;;;15.76;60.42;100367.88;4968169;28;20130;-68
2021/05/23 07:41:23;;;;;;;2.92;0.77;;;;;;;15.26;63.43;100364.09;4961527;28;20058;-67
2021/05/23 07:43:50;;;;;;;2.30;0.93;;;;;;;15.44;62.21;100366.09;4959906;28;20143;-70
2021/05/23 07:46:17;;;;;;;2.10;1.60;;;;;;;15.34;63.29;100372.25;4958006;28;20200;-68
2021/05/23 07:48:45;;;;;;;7.40;1.42;;;;;;;15.73;61.33;100368.13;4965382;28;20074;-69
2021/05/23 07:51:12;;;;;;;1.92;1.00;;;;;;;16.27;58.59;100379.47;4959314;28;20158;-72
2021/05/23 07:53:39;;;;;;;2.88;1.13;;;;;;;16.62;57.49;100379.88;4963965;28;20512;-69
2021/05/23 07:56:06;;;;;;;3.55;0.90;;;;;;;16.73;56.55;100383.44;4965596;28;20077;-69
2021/05/23 07:58:33;;;;;;;2.17;0.88;;;;;;;16.65;56.48;100376.94;4975390;28;20142;-69
2021/05/23 08:01:01;;;;;;;2.10;0.85;;;;;;;17.07;54.28;100375.97;4949478;28;20145;-70
2021/05/23 08:03:28;;;;;;;3.55;0.98;;;;;;;16.63;55.30;100370.94;4963508;28;20117;-69
2021/05/23 08:05:55;;;;;;;4.72;0.82;;;;;;;15.70;56.38;100377.16;4990457;28;20050;-69
2021/05/23 08:08:22;;;;;;;5.43;1.00;;;;;;;15.06;57.96;100368.38;4965750;28;20423;-69
2021/05/23 08:10:50;;;;;;;2.15;0.93;;;;;;;15.34;57.98;100383.72;4960011;28;20039;-69
2021/05/23 08:13:17;;;;;;;2.47;0.90;;;;;;;15.48;56.90;100379.06;4962526;28;20070;-69
2021/05/23 08:15:44;;;;;;;3.47;1.08;;;;;;;15.08;57.41;100392.94;4980652;28;20049;-69
2021/05/23 08:18:17;;;;;;;2.78;1.00;;;;;;;14.37;60.01;100390.63;4966389;28;20055;-69
2021/05/23 08:20:54;;;;;;;3.80;1.00;;;;;;;14.60;59.91;100401.25;4946731;28;20054;-67
2021/05/23 08:23:22;;;;;;;2.08;0.90;;;;;;;15.21;59.00;100396.28;4965320;28;20105;-68
2021/05/23 08:25:50;;;;;;;4.13;1.05;;;;;;;14.82;58.96;100395.09;4961371;28;20073;-70
2021/05/23 08:28:17;;;;;;;2.50;1.17;;;;;;;15.49;57.37;100404.63;4956351;28;20059;-68
2021/05/23 08:30:44;;;;;;;1.58;0.88;;;;;;;15.65;56.75;100397.09;4960733;28;20171;-68
2021/05/23 08:33:12;;;;;;;7.45;0.93;;;;;;;15.60;56.44;100404.59;4956082;28;20106;-67
2021/05/23 08:35:40;;;;;;;6.38;1.20;;;;;;;15.31;57.42;100412.28;4962254;28;20228;-67
2021/05/23 08:38:08;;;;;;;7.22;1.13;;;;;;;15.20;57.91;100407.88;4937524;28;20206;-69
2021/05/23 08:40:36;;;;;;;2.00;0.93;;;;;;;14.70;60.03;100420.75;4988012;28;20055;-68
2021/05/23 08:43:07;;;;;;;8.98;1.58;;;;;;;15.36;58.59;100423.38;4956441;28;20524;-69
2021/05/23 08:45:35;;;;;;;4.53;1.20;;;;;;;15.80;57.13;100416.19;4953919;28;20060;-68
2021/05/23 08:48:03;;;;;;;5.53;1.08;;;;;;;15.86;56.63;100411.25;4958546;28;20054;-68
2021/05/23 08:50:31;;;;;;;2.13;0.85;;;;;;;16.39;55.20;100413.78;4955351;28;20079;-68
2021/05/23 08:53:00;;;;;;;4.65;0.98;;;;;;;16.85;53.89;100417.75;4964555;28;20058;-68
2021/05/23 08:55:29;;;;;;;6.03;1.00;;;;;;;17.41;51.51;100414.47;4971876;28;20408;-68
2021/05/23 08:57:59;;;;;;;2.83;1.63;;;;;;;17.31;51.46;100415.44;4959748;28;20055;-69
2021/05/23 09:00:27;;;;;;;3.95;0.90;;;;;;;16.63;53.55;100426.75;4954504;28;20051;-69
2021/05/23 09:02:57;;;;;;;1.60;0.90;;;;;;;17.11;52.62;100431.41;4970285;28;20047;-68
2021/05/23 09:05:55;;;;;;;3.72;0.90;;;;;;;17.46;51.54;100433.50;4971466;28;20058;-69
2021/05/23 09:08:29;;;;;;;2.63;0.85;;;;;;;17.64;51.01;100427.50;4954302;28;20380;-70
2021/05/23 09:11:02;;;;;;;4.95;0.88;;;;;;;17.00;52.49;100434.16;4976745;28;20123;-68
2021/05/23 09:13:36;;;;;;;2.33;1.10;;;;;;;16.94;52.48;100440.03;4963973;28;20057;-68
2021/05/23 09:16:06;;;;;;;0.98;0.75;;;;;;;17.25;52.03;100437.31;4959086;28;20082;-70
2021/05/23 09:18:55;;;;;;;1.80;0.70;;;;;;;17.10;52.63;100445.66;4951982;28;20046;-67
2021/05/23 09:21:28;;;;;;;1.85;0.77;;;;;;;16.43;54.47;100449.72;4966021;28;20072;-71
2021/05/23 09:24:04;;;;;;;3.35;0.82;;;;;;;16.62;54.26;100450.81;4950893;28;20073;-69
2021/05/23 09:26:39;;;;;;;1.17;0.80;;;;;;;16.84;53.42;100457.75;4962122;28;20461;-69
2021/05/23 09:29:16;;;;;;;1.57;0.70;;;;;;;17.01;53.54;100456.28;4967590;28;20475;-68
2021/05/23 09:31:46;;;;;;;2.70;0.70;;;;;;;17.10;52.30;100458.94;4968101;28;20528;-69
2021/05/23 09:34:24;;;;;;;1.95;0.95;;;;;;;17.30;52.18;100462.50;4975263;28;20076;-68
2021/05/23 09:36:52;;;;;;;1.70;0.80;;;;;;;16.95;53.35;100461.16;4967133;28;20049;-68
2021/05/23 09:39:19;;;;;;;2.13;0.90;;;;;;;17.45;52.63;100457.63;4954983;28;20055;-69
2021/05/23 09:41:47;;;;;;;1.48;0.80;;;;;;;17.31;53.37;100456.19;4973359;28;20108;-68
2021/05/23 09:44:18;;;;;;;1.33;0.77;;;;;;;18.17;50.81;100451.84;4961629;28;20059;-68
2021/05/23 09:46:52;;;;;;;3.65;0.90;;;;;;;17.66;51.32;100454.84;4953068;28;20069;-69
2021/05/23 09:49:20;;;;;;;1.50;0.60;;;;;;;17.64;51.34;100459.44;4966835;28;20062;-68
2021/05/23 09:52:00;;;;;;;2.50;0.80;;;;;;;17.24;51.52;100468.34;4964712;28;20054;-68
2021/05/23 09:54:29;;;;;;;4.47;0.90;;;;;;;16.63;53.16;100463.94;4980851;28;20109;-68
2021/05/23 09:56:57;;;;;;;3.92;2.03;;;;;;;16.67;54.63;100470.69;4971889;28;20061;-72
2021/05/23 09:59:26;;;;;;;10.88;5.18;;;;;;;16.98;53.35;100472.50;4965067;28;20523;-69
2021/05/23 10:02:04;;;;;;;3.63;1.40;;;;;;;17.76;52.14;100468.19;4958661;28;20057;-70
2021/05/23 10:04:32;;;;;;;0.88;0.60;;;;;;;17.05;50.92;100471.81;4961661;28;20053;-69
2021/05/23 10:07:07;;;;;;;1.63;0.73;;;;;;;16.32;53.06;100476.38;4947494;28;20051;-69
2021/05/23 10:09:35;;;;;;;2.25;0.60;;;;;;;16.83;50.89;100470.19;4934599;28;20069;-69
2021/05/23 10:12:03;;;;;;;0.73;0.55;;;;;;;16.86;50.58;100479.75;4954021;28;20085;-71
2021/05/23 10:14:30;;;;;;;3.85;0.50;;;;;;;17.56;48.91;100480.59;4962732;28;20474;-68
2021/05/23 10:16:59;;;;;;;0.50;0.40;;;;;;;17.80;48.92;100473.06;4958097;28;20550;-70
2021/05/23 10:19:30;;;;;;;1.27;0.50;;;;;;;18.29;48.00;100473.84;4963682;28;20058;-69
2021/05/23 10:22:03;;;;;;;1.20;0.50;;;;;;;18.18;47.80;100485.50;4930510;28;20066;-71
2021/05/23 10:24:34;;;;;;;1.17;0.57;;;;;;;17.45;48.86;100479.75;4957630;28;20130;-70
2021/05/23 10:27:07;;;;;;;0.75;0.50;;;;;;;17.85;48.37;100488.63;4958467;28;20537;-69
2021/05/23 10:29:42;;;;;;;0.43;0.38;;;;;;;18.12;47.04;100483.41;4932407;28;20146;-69
2021/05/23 10:32:16;;;;;;;1.98;0.38;;;;;;;18.67;45.99;100474.72;4953198;28;20063;-69
2021/05/23 10:34:46;;;;;;;1.70;0.40;;;;;;;18.57;45.80;100488.09;4935838;28;20405;-71
2021/05/23 10:37:17;;;;;;;0.55;0.40;;;;;;;17.72;47.83;100497.69;4941523;28;20452;-69
2021/05/23 10:39:52;;;;;;;1.35;0.68;;;;;;;18.67;45.95;100491.56;4942876;28;20538;-70
2021/05/23 10:42:20;;;;;;;0.40;0.40;;;;;;;17.40;48.17;100497.94;4961173;28;20054;-69
2021/05/23 10:44:49;;;;;;;1.38;0.40;;;;;;;17.85;47.19;100500.13;4959968;28;20050;-71
2021/05/23 10:47:28;;;;;;;1.85;0.60;;;;;;;18.16;46.10;100503.47;4950151;28;20138;-72
2021/05/23 10:49:59;;;;;;;1.08;0.50;;;;;;;17.72;46.96;100504.84;4946568;28;20412;-69
2021/05/23 10:52:30;;;;;;;0.88;0.50;;;;;;;17.62;46.68;100504.84;4944336;28;20066;-71
2021/05/23 10:55:11;;;;;;;3.00;0.60;;;;;;;18.36;45.83;100495.44;4977063;28;20101;-70
2021/05/23 10:57:49;;;;;;;1.25;0.52;;;;;;;19.16;44.20;100491.38;4961201;28;20243;-70
2021/05/23 11:00:26;;;;;;;1.05;0.73;;;;;;;19.13;44.41;100492.50;4958655;28;20096;-68
2021/05/23 11:02:55;;;;;;;0.50;0.50;;;;;;;20.00;42.41;100500.94;4964328;28;20066;-69
2021/05/23 11:05:24;;;;;;;1.23;0.80;;;;;;;19.05;44.27;100494.22;4983262;28;20077;-70
2021/05/23 11:08:00;;;;;;;1.52;0.70;;;;;;;18.42;45.60;100502.88;4991249;23;20114;-79
2021/05/23 11:10:50;;;;;;;1.20;0.55;;;;;;;19.27;43.62;100511.66;4977297;28;20047;-78
2021/05/23 11:13:23;;;;;;;1.08;0.77;;;;;;;19.03;43.24;100505.06;4955501;28;20050;-78
2021/05/23 11:15:50;;;;;;;0.98;0.60;;;;;;;17.82;46.55;100519.03;4989234;28;20371;-79
2021/05/23 11:18:26;;;;;;;2.72;1.60;;;;;;;18.20;45.29;100518.19;4970906;28;20122;-79
2021/05/23 11:21:08;;;;;;;0.80;0.60;;;;;;;18.39;44.88;100511.97;4993589;28;20511;-79
2021/05/23 11:23:57;;;;;;;1.17;0.80;;;;;;;18.91;44.42;100520.44;4970147;28;20035;-79
2021/05/23 11:26:25;;;;;;;0.80;0.73;;;;;;;18.86;44.40;100521.84;4970159;28;20502;-78
2021/05/23 11:28:55;;;;;;;4.38;1.10;;;;;;;19.02;44.50;100531.88;4994100;28;20065;-79
2021/05/23 11:31:26;;;;;;;0.75;0.63;;;;;;;18.53;45.51;100525.84;4962040;28;20085;-78
2021/05/23 11:33:53;;;;;;;0.60;0.60;;;;;;;18.67;45.56;100520.03;4987162;28;20118;-78
2021/05/23 11:36:23;;;;;;;0.95;0.65;;;;;;;18.52;45.95;100532.16;4997950;28;20058;-79
2021/05/23 11:38:54;;;;;;;1.10;0.70;;;;;;;18.62;46.08;100532.97;4986431;28;20054;-79
2021/05/23 11:41:35;;;;;;;1.40;1.05;;;;;;;18.32;47.99;100531.34;4958933;28;20069;-78
2021/05/23 11:44:05;;;;;;;0.95;0.80;;;;;;;17.82;49.23;100523.53;4996035;28;20042;-78
2021/05/23 11:46:32;;;;;;;1.42;1.00;;;;;;;17.33;50.68;100530.56;4996424;28;20050;-78
2021/05/23 11:49:00;;;;;;;1.75;1.25;;;;;;;17.87;50.24;100527.44;4988050;28;20461;-78
2021/05/23 11:51:30;;;;;;;1.77;0.77;;;;;;;18.12;49.21;100525.22;4977002;28;20239;-77
2021/05/23 11:54:02;;;;;;;1.10;1.00;;;;;;;18.44;48.72;100527.53;4993372;28;20090;-79